createdAt,value
2018-08-13T00:03:13.821Z,0.90
2018-08-13T00:08:17.721Z,0.90
2018-08-13T00:13:20.831Z,1.10
2018-08-13T00:18:24.852Z,0.90
2018-08-13T00:23:27.976Z,1.10
2018-08-13T00:28:31.097Z,0.83
2018-08-13T00:33:34.196Z,0.90
2018-08-13T00:38:37.300Z,0.80
2018-08-13T00:43:40.402Z,1.17
2018-08-13T00:48:43.510Z,1.10
2018-08-13T00:53:46.601Z,1.13
2018-08-13T00:58:49.718Z,0.83
2018-08-13T01:03:52.827Z,0.90
2018-08-13T01:08:55.931Z,1.00
2018-08-13T01:13:59.044Z,1.00
2018-08-13T01:19:02.161Z,1.10
2018-08-13T01:24:05.270Z,1.07
2018-08-13T01:29:08.373Z,1.10
2018-08-13T01:34:12.142Z,1.10
2018-08-13T01:39:15.270Z,1.03
2018-08-13T01:44:18.401Z,1.00
2018-08-13T01:49:21.519Z,0.87
2018-08-13T01:54:24.637Z,1.00
2018-08-13T01:59:27.736Z,1.07
2018-08-13T02:04:30.910Z,0.80
2018-08-13T02:09:38.797Z,1.10
2018-08-13T02:14:42.603Z,0.80
2018-08-13T02:19:45.706Z,0.90
2018-08-13T02:24:48.812Z,1.07
2018-08-13T02:29:51.915Z,1.03
2018-08-13T02:34:55.002Z,0.97
2018-08-13T02:39:58.101Z,1.10
2018-08-13T02:45:01.202Z,0.87
2018-08-13T02:50:05.492Z,1.13
2018-08-13T02:55:09.513Z,1.10
2018-08-13T03:00:12.670Z,1.27
2018-08-13T03:05:15.808Z,1.10
2018-08-13T03:10:18.957Z,1.33
2018-08-13T03:15:22.053Z,1.13
2018-08-13T03:20:25.165Z,1.10
2018-08-13T03:25:28.373Z,0.93
2018-08-13T03:30:31.685Z,1.27
2018-08-13T03:35:34.809Z,1.27
2018-08-13T03:40:37.930Z,0.83
2018-08-13T03:45:41.368Z,1.20
2018-08-13T03:50:44.486Z,0.80
2018-08-13T03:55:48.263Z,1.10
2018-08-13T04:00:51.395Z,1.20
2018-08-13T04:05:54.653Z,1.07
2018-08-13T04:10:57.750Z,1.20
2018-08-13T04:16:01.045Z,1.10
2018-08-13T04:21:04.176Z,1.20
2018-08-13T04:26:07.337Z,1.20
2018-08-13T04:31:10.429Z,1.20
2018-08-13T04:36:13.537Z,1.17
2018-08-13T04:41:16.638Z,1.20
2018-08-13T04:51:45.790Z,1.30
2018-08-13T04:56:48.927Z,1.40
2018-08-13T05:01:52.066Z,1.20
2018-08-13T05:06:55.165Z,1.20
2018-08-13T05:11:58.271Z,1.40
2018-08-13T05:17:01.381Z,1.17
2018-08-13T05:22:04.525Z,1.40
2018-08-13T05:27:07.697Z,1.40
2018-08-13T05:32:10.961Z,1.60
2018-08-13T05:37:14.048Z,1.50
2018-08-13T05:42:17.149Z,1.50
2018-08-13T05:47:20.254Z,1.60
2018-08-13T05:52:23.399Z,1.60
2018-08-13T05:57:26.501Z,1.50
2018-08-13T06:02:29.631Z,1.30
2018-08-13T06:07:32.747Z,1.37
2018-08-13T06:12:35.858Z,1.40
2018-08-13T06:17:38.968Z,1.90
2018-08-13T06:22:43.136Z,1.90
2018-08-13T06:27:46.248Z,2.17
2018-08-13T06:32:49.416Z,1.73
2018-08-13T06:37:52.515Z,1.70
2018-08-13T06:42:55.644Z,1.87
2018-08-13T06:47:58.732Z,1.57
2018-08-13T06:53:01.836Z,1.63
2018-08-13T06:58:05.371Z,1.60
2018-08-13T07:03:08.495Z,1.40
2018-08-13T07:08:11.610Z,1.50
2018-08-13T07:13:14.696Z,1.33
2018-08-13T07:18:17.803Z,1.23
2018-08-13T07:23:20.902Z,1.73
2018-08-13T07:28:24.000Z,1.80
2018-08-13T07:33:27.155Z,1.43
2018-08-13T07:38:30.339Z,1.57
2018-08-13T07:43:33.456Z,1.50
2018-08-13T07:48:36.602Z,1.50
2018-08-13T07:53:40.060Z,1.40
2018-08-13T07:58:43.178Z,1.50
2018-08-13T08:03:46.285Z,1.50
2018-08-13T08:08:53.138Z,1.40
2018-08-13T08:13:56.237Z,1.80
2018-08-13T08:18:59.365Z,1.50
2018-08-13T08:24:02.578Z,1.50
2018-08-13T08:29:06.617Z,1.37
2018-08-13T08:34:10.358Z,1.40
2018-08-13T08:39:14.803Z,1.30
2018-08-13T08:44:17.905Z,1.50
2018-08-13T08:49:20.979Z,1.20
2018-08-13T08:54:24.115Z,1.40
2018-08-13T08:59:27.219Z,1.50
2018-08-13T09:04:30.322Z,1.30
2018-08-13T09:09:33.416Z,1.40
2018-08-13T09:14:36.910Z,1.50
2018-08-13T09:19:51.306Z,1.10
2018-08-13T09:25:05.856Z,1.40
2018-08-13T09:30:20.257Z,1.80
2018-08-13T09:35:26.268Z,1.37
2018-08-13T09:40:30.591Z,1.20
2018-08-13T09:45:33.683Z,1.20
2018-08-13T09:50:36.812Z,1.20
2018-08-13T09:55:39.912Z,1.57
2018-08-13T10:00:48.448Z,1.40
2018-08-13T10:05:51.544Z,1.30
2018-08-13T10:10:54.711Z,1.40
2018-08-13T10:15:57.756Z,1.13
2018-08-13T10:21:00.885Z,1.77
2018-08-13T10:26:04.000Z,1.33
2018-08-13T10:31:07.096Z,1.40
2018-08-13T10:36:10.180Z,1.50
2018-08-13T10:41:13.340Z,1.50
2018-08-13T10:46:17.120Z,1.60
2018-08-13T10:51:20.219Z,1.87
2018-08-13T10:56:23.315Z,1.87
2018-08-13T11:01:26.528Z,2.03
2018-08-13T11:06:32.115Z,2.13
2018-08-13T11:11:36.588Z,2.20
2018-08-13T11:16:39.710Z,2.17
2018-08-13T11:21:42.867Z,2.10
2018-08-13T11:26:45.945Z,2.30
2018-08-13T11:31:49.089Z,2.23
2018-08-13T11:36:54.191Z,1.90
2018-08-13T11:41:57.296Z,1.80
2018-08-13T11:47:00.413Z,1.63
2018-08-13T11:52:03.541Z,1.90
2018-08-13T11:57:09.606Z,2.10
2018-08-13T12:02:12.690Z,2.40
2018-08-13T12:07:15.797Z,2.20
2018-08-13T12:12:18.933Z,2.40
2018-08-13T12:17:22.908Z,2.30
2018-08-13T12:22:26.029Z,2.20
2018-08-13T12:27:29.135Z,2.57
2018-08-13T12:32:32.247Z,2.27
2018-08-13T12:37:35.456Z,2.07
2018-08-13T12:42:39.167Z,2.00
2018-08-13T12:47:42.337Z,1.80
2018-08-13T12:52:46.519Z,1.90
2018-08-13T12:57:49.626Z,1.70
2018-08-13T13:02:52.812Z,1.67
2018-08-13T13:07:55.923Z,1.50
2018-08-13T13:12:59.061Z,1.73
2018-08-13T13:18:02.185Z,1.57
2018-08-13T13:23:05.299Z,1.87
2018-08-13T13:28:08.407Z,1.87
2018-08-13T13:33:11.628Z,2.00
2018-08-13T13:38:14.756Z,1.70
2018-08-13T13:43:17.910Z,2.00
2018-08-13T13:48:21.048Z,1.70
2018-08-13T13:53:24.220Z,1.85
2018-08-13T13:58:27.319Z,1.95
2018-08-13T14:03:30.433Z,1.90
2018-08-13T14:08:33.568Z,1.70
2018-08-13T14:13:36.725Z,1.70
2018-08-13T14:18:39.897Z,1.43
2018-08-13T14:23:42.999Z,1.90
2018-08-13T14:28:46.105Z,1.60
2018-08-13T14:33:49.252Z,1.47
2018-08-13T14:38:52.835Z,1.90
2018-08-13T14:43:56.044Z,1.80
2018-08-13T14:48:59.152Z,1.80
2018-08-13T14:54:03.346Z,1.80
2018-08-13T14:59:07.149Z,1.50
2018-08-13T15:04:10.297Z,1.53
2018-08-13T15:09:13.740Z,1.43
2018-08-13T15:14:16.870Z,1.87
2018-08-13T15:19:19.978Z,1.60
2018-08-13T15:24:23.098Z,1.60
2018-08-13T15:29:26.200Z,1.33
2018-08-13T15:34:29.297Z,1.60
2018-08-13T15:39:32.404Z,1.53
2018-08-13T15:44:35.536Z,1.40
2018-08-13T15:49:38.685Z,1.63
2018-08-13T15:55:45.013Z,1.40
2018-08-13T16:00:48.086Z,1.60
2018-08-13T16:05:51.166Z,1.70
2018-08-13T16:10:54.325Z,1.50
2018-08-13T16:15:57.434Z,1.65
2018-08-13T16:21:00.557Z,1.40
2018-08-13T16:26:03.677Z,1.32
2018-08-13T16:31:06.794Z,1.17
2018-08-13T16:36:09.901Z,1.32
2018-08-13T16:41:12.998Z,1.22
2018-08-13T16:46:16.104Z,1.10
2018-08-13T16:51:19.232Z,1.00
2018-08-13T16:56:23.239Z,1.10
2018-08-13T17:01:26.321Z,1.10
2018-08-13T17:06:29.457Z,1.10
2018-08-13T17:11:34.408Z,0.90
2018-08-13T17:16:39.129Z,1.10
2018-08-13T17:21:42.235Z,1.10
2018-08-13T17:26:45.354Z,1.10
2018-08-13T17:31:48.487Z,1.07
2018-08-13T17:36:51.584Z,1.10
2018-08-13T17:41:54.723Z,0.80
2018-08-13T17:46:57.861Z,0.60
2018-08-13T17:52:01.049Z,0.80
2018-08-13T17:57:04.231Z,0.90
2018-08-13T18:02:07.417Z,0.90
2018-08-13T18:07:10.453Z,0.70
2018-08-13T18:12:13.556Z,0.80
2018-08-13T18:17:16.696Z,0.80
2018-08-13T18:22:19.809Z,0.87
2018-08-13T18:27:22.920Z,0.90
2018-08-13T18:32:26.088Z,0.70
2018-08-13T18:37:29.267Z,0.60
2018-08-13T18:42:32.317Z,0.60
2018-08-13T18:47:35.456Z,0.70
2018-08-13T18:52:38.628Z,0.50
2018-08-13T18:57:41.721Z,0.80
2018-08-13T19:02:44.849Z,0.70
2018-08-13T19:07:48.139Z,0.70
2018-08-13T19:12:51.288Z,0.63
2018-08-13T19:17:54.668Z,0.60
2018-08-13T19:22:57.759Z,0.80
2018-08-13T19:28:00.856Z,0.70
2018-08-13T19:33:03.959Z,0.70
2018-08-13T19:38:07.093Z,0.80
2018-08-13T19:43:10.211Z,0.80
2018-08-13T19:48:13.351Z,0.67
2018-08-13T19:53:16.461Z,0.90
2018-08-13T19:58:19.559Z,0.60
2018-08-13T20:03:22.685Z,0.90
2018-08-13T20:08:25.807Z,0.80
2018-08-13T20:13:28.967Z,0.70
2018-08-13T20:18:32.020Z,0.90
2018-08-13T20:23:35.148Z,0.60
2018-08-13T20:28:38.276Z,0.53
2018-08-13T20:33:41.378Z,0.97
2018-08-13T20:38:44.587Z,0.77
2018-08-13T20:43:47.869Z,0.83
2018-08-13T20:48:50.972Z,0.90
2018-08-13T20:53:54.107Z,0.90
2018-08-13T20:58:57.205Z,0.70
2018-08-13T21:04:00.309Z,1.07
2018-08-13T21:09:06.647Z,0.53
2018-08-13T21:14:09.688Z,0.80
2018-08-13T21:19:12.793Z,0.63
2018-08-13T21:24:15.904Z,0.60
2018-08-13T21:29:18.997Z,0.70
2018-08-13T21:34:22.092Z,0.80
2018-08-13T21:39:25.204Z,0.77
2018-08-13T21:44:28.343Z,0.67
2018-08-13T21:49:31.445Z,0.90
2018-08-13T21:54:34.559Z,0.60
2018-08-13T21:59:37.663Z,0.60
2018-08-13T22:04:41.832Z,1.00
2018-08-13T22:09:44.957Z,0.70
2018-08-13T22:14:48.364Z,0.70
2018-08-13T22:19:51.600Z,0.67
2018-08-13T22:25:02.002Z,0.80
2018-08-13T22:30:07.232Z,0.80
2018-08-13T22:35:10.623Z,0.90
2018-08-13T22:40:16.284Z,0.87
2018-08-13T22:45:20.966Z,1.00
2018-08-13T22:50:24.075Z,0.77
2018-08-13T22:55:27.184Z,0.80
2018-08-13T23:00:30.856Z,0.80
2018-08-13T23:05:33.958Z,0.70
2018-08-13T23:10:37.078Z,0.90
2018-08-13T23:15:40.184Z,1.07
2018-08-13T23:20:43.264Z,0.90
2018-08-13T23:25:46.355Z,0.90
2018-08-13T23:30:49.461Z,0.97
2018-08-13T23:35:52.556Z,1.00
2018-08-13T23:40:55.660Z,0.80
2018-08-13T23:45:58.766Z,1.00
2018-08-13T23:51:01.893Z,1.10
2018-08-13T23:56:04.988Z,0.80
